Rousseau, South Dakota
Current Conditions -  °F | °C
As of 9:02 PM on Saturday 24 Jan 2015 (Local Time) from KPIR Reporting Station
Broken Clouds Broken Clouds  
Wind Chill: 27°   Ceiling: 1900
Heat Index: 39°   Visibility: 10mi
Dew Point: 32°   Wind: 29mph
Humidity: 76%   Direction: 330°NNW
Pressure: 29.75"   Gusts: 41mph
Location:  44.3693°N, 100.04°W
Report Text: KPIR 250302Z AUTO 33025G36KT 10SM BKN019 04/00 A2975 RMK AO2 PK WND 33036/0254 PRESRR T00390000
Loading
Personal Weather Stations






























Interactive Weather Map New forecast layout! Learn more

10-Day Weather Forecast

Advertisements
Track Severe Weather on mobile